首页
METAR-TAF:

METAR-TAF

机场 :

New Orleans Naval Air Station Joint Reserve Base (Alvin Callender Field)

新奥尔良, 路易斯安那州, 美国

纬度: 29-50-14N, 经度: 090-01-28W, 海拔: 0米

当前天气观测

该预报发布于1小时和28分钟前的20:55 UTC
风速13节,风向东北,有时为22节阵风
温度 12°C
湿度 50%
气压 1028 hPa
能見度: 16.1公里
多云层高于5500英尺
多云层高于8000英尺
多云层高于25000英尺

METAR: KNBG 112055Z 04013G22KT 10SM BKN055 BKN080 BKN250 12/02 A3037 RMK SLP284 T01220017 56015

时间: 16:23 (22:23 UTC)

预报

预报有效从11日的 15点(UTC)到 12日的 15点(UTC)
风速15节,风向,有时为25节阵风
能见度10公里或以上
散云层高于4000英尺
多云层高于6000英尺
多云层高于25000英尺
成为
从 11日的 20点(UTC)到 11日的 22点(UTC)
风速12节,风向北转东北,有时为20节阵风
能见度10公里或以上
散云层高于5500英尺
散云层高于10000英尺
多云层高于25000英尺
成为
从 12日的 03点(UTC)到 12日的 05点(UTC)
风速10节,风向东北,有时为18节阵风
能见度10公里或以上
散云层高于6000英尺
散云层高于25000英尺
成为
从 12日的 07点(UTC)到 12日的 09点(UTC)
风速10节,风向东转东北,有时为15节阵风
能见度10公里或以上
散云层高于2500英尺
多云层高于4000英尺
多云层高于25000英尺
成为
从 12日的 12点(UTC)到 12日的 14点(UTC)
风速10节,风向,有时为15节阵风
能见度10公里或以上
多云层高于2500英尺
多云层高于6000英尺
多云层高于25000英尺
附近有阵雨

TAF: KNBG 1115/1215 01015G25KT 9999 SCT040 BKN060 BKN250 500000 QNH3036INS BECMG 1120/1122 03012G20KT 9999 SCT055 SCT100 BKN250 QNH3035INS BECMG 1203/1205 05010G18KT 9999 SCT060 SCT250 QNH3027INS BECMG 1207/1209 07010G15KT 9999 SCT025 BKN040 BKN250 QNH3023INS BECMG 1212/1214 08010G15KT 9999 VCSH BKN025 BKN060 BKN250 QNH3022INS T13/1119Z T06/1212Z FN20040

超过4000个机场的气象观测和天气预报(METAR&TAF报告)。

可查询的气象台以黄色和红色小点在地图上表示。

将鼠标移到小点上方,可查看气象台名称。

然后点击查看天气观测和预报。

如需切换地图:点击带黑十字的绿色按钮放大地图;点击带横线的绿色按钮缩小地图;或者点击绿色箭头查看邻近地区的地图。


METAR-TAF: